Time;durP1;ratioP1;P1;durP2;ratioP2;P2;SDS_P1;SDS_P2;PMS_P1;PMS_P2;Temp;Humidity;BMP_temperature;BMP_pressure;BME280_temperature;BME280_humidity;BME280_pressure;Samples;Min_cycle;Max_cycle;Signal;HPM_P1;HPM_P2
2021/07/30 00:00:10;;;;;;;4.10;3.80;;;16.50;99.80;;;;;;6078651;23;20820;-86
2021/07/30 00:02:38;;;;;;;4.80;3.70;;;16.50;99.80;;;;;;6119174;23;20601;-87
2021/07/30 00:05:08;;;;;;;4.83;4.20;;;16.50;99.80;;;;;;6107763;23;20476;-87
2021/07/30 00:07:36;;;;;;;4.03;3.73;;;16.40;99.80;;;;;;6105606;23;20513;-87
2021/07/30 00:10:05;;;;;;;5.80;4.03;;;16.40;99.80;;;;;;6098303;23;20449;-86
2021/07/30 00:12:33;;;;;;;4.33;3.93;;;16.40;99.80;;;;;;6105552;23;20955;-86
2021/07/30 00:15:01;;;;;;;9.27;5.20;;;16.40;99.80;;;;;;6099123;23;20833;-87
2021/07/30 00:17:31;;;;;;;5.00;4.30;;;16.30;99.80;;;;;;6107170;23;20801;-87
2021/07/30 00:19:59;;;;;;;6.10;4.50;;;16.20;99.80;;;;;;6113234;23;20441;-86
2021/07/30 00:22:27;;;;;;;7.67;5.97;;;16.10;99.80;;;;;;6114216;23;20436;-86
2021/07/30 00:24:55;;;;;;;7.23;4.40;;;16.10;99.80;;;;;;6116080;23;21033;-86
2021/07/30 00:27:23;;;;;;;5.27;4.60;;;16.10;99.80;;;;;;6105017;23;20453;-86
2021/07/30 00:29:51;;;;;;;5.60;5.03;;;16.00;99.80;;;;;;6103884;23;20440;-87
2021/07/30 00:32:19;;;;;;;5.20;4.43;;;16.00;99.80;;;;;;6094245;23;20444;-86
2021/07/30 00:34:48;;;;;;;6.03;5.43;;;15.90;99.80;;;;;;6104675;23;20436;-86
2021/07/30 00:37:16;;;;;;;7.97;4.90;;;15.90;99.80;;;;;;6108866;23;20988;-86
2021/07/30 00:39:44;;;;;;;5.87;5.10;;;15.80;99.80;;;;;;6105553;23;20437;-86
2021/07/30 00:42:12;;;;;;;5.50;5.00;;;15.80;99.80;;;;;;6100511;23;20441;-86
2021/07/30 00:44:40;;;;;;;6.13;4.87;;;15.80;99.80;;;;;;6108853;23;20441;-87
2021/07/30 00:47:08;;;;;;;7.40;4.83;;;15.70;99.80;;;;;;6109665;23;20432;-87
2021/07/30 00:49:36;;;;;;;5.90;5.30;;;15.70;99.80;;;;;;6104259;23;20444;-86
2021/07/30 00:52:06;;;;;;;5.23;4.70;;;15.60;99.80;;;;;;6115083;23;20444;-87
2021/07/30 00:54:34;;;;;;;7.80;4.97;;;15.60;99.80;;;;;;6115780;23;20464;-87
2021/07/30 00:57:03;;;;;;;8.17;5.00;;;15.50;99.80;;;;;;6111345;23;20445;-87
2021/07/30 00:59:31;;;;;;;8.87;5.60;;;15.50;99.80;;;;;;6095129;23;20448;-86
2021/07/30 01:01:59;;;;;;;5.67;5.17;;;15.50;99.80;;;;;;6108214;23;20505;-86
2021/07/30 01:04:27;;;;;;;5.90;5.40;;;15.50;99.80;;;;;;6114383;23;20752;-87
2021/07/30 01:06:55;;;;;;;7.90;5.57;;;15.50;99.80;;;;;;6110845;23;20445;-86
2021/07/30 01:09:25;;;;;;;5.63;5.03;;;15.50;99.80;;;;;;6104266;23;20438;-86
2021/07/30 01:11:53;;;;;;;7.93;4.60;;;15.50;99.80;;;;;;6108106;23;20447;-86
2021/07/30 01:14:21;;;;;;;6.53;4.93;;;15.50;99.80;;;;;;6089177;23;20529;-86
2021/07/30 01:16:49;;;;;;;5.57;4.87;;;15.50;99.80;;;;;;6095983;23;20451;-87
2021/07/30 01:19:21;;;;;;;7.47;5.17;;;15.40;99.80;;;;;;6114750;23;20439;-86
2021/07/30 01:21:50;;;;;;;7.07;5.63;;;15.40;99.80;;;;;;6114414;23;20444;-86
2021/07/30 01:24:20;;;;;;;6.83;5.33;;;15.30;99.80;;;;;;6112186;23;20781;-86
2021/07/30 01:26:49;;;;;;;6.07;4.87;;;15.30;99.80;;;;;;6114819;23;20446;-86
2021/07/30 01:29:17;;;;;;;6.10;5.50;;;15.20;99.80;;;;;;6112236;23;20947;-86
2021/07/30 01:31:45;;;;;;;12.60;5.23;;;15.20;99.80;;;;;;6108269;23;20443;-86
2021/07/30 01:34:13;;;;;;;5.63;4.90;;;15.20;99.80;;;;;;6113588;23;20442;-86
2021/07/30 01:36:41;;;;;;;8.57;6.40;;;15.10;99.80;;;;;;6112365;23;20440;-87
2021/07/30 01:39:09;;;;;;;6.07;4.83;;;15.10;99.80;;;;;;6106233;23;20443;-86
2021/07/30 01:41:39;;;;;;;5.77;5.27;;;15.10;99.80;;;;;;6103365;23;20449;-86
2021/07/30 01:44:07;;;;;;;7.50;5.03;;;15.10;99.80;;;;;;6106655;23;20442;-86
2021/07/30 01:46:35;;;;;;;7.43;5.03;;;15.00;99.80;;;;;;6099859;23;20551;-86
2021/07/30 01:49:03;;;;;;;7.03;5.00;;;15.00;99.80;;;;;;6109677;23;20466;-87
2021/07/30 01:51:31;;;;;;;11.33;5.73;;;15.00;99.80;;;;;;6104781;23;20452;-86
2021/07/30 01:53:59;;;;;;;5.87;5.33;;;15.00;99.80;;;;;;6107785;23;20449;-87
2021/07/30 01:56:27;;;;;;;5.37;4.87;;;15.00;99.80;;;;;;6098179;23;20443;-86
2021/07/30 01:58:57;;;;;;;6.17;5.50;;;15.00;99.80;;;;;;6090604;23;20447;-87
2021/07/30 02:01:25;;;;;;;7.93;5.10;;;15.00;99.80;;;;;;6108772;23;20442;-86
2021/07/30 02:03:53;;;;;;;4.80;4.40;;;14.90;99.80;;;;;;6123593;23;20486;-86
2021/07/30 02:06:21;;;;;;;6.53;4.90;;;14.90;99.80;;;;;;6121047;23;20763;-86
2021/07/30 02:08:49;;;;;;;14.43;5.00;;;14.80;99.80;;;;;;6121169;23;20404;-86
2021/07/30 02:11:17;;;;;;;5.70;5.13;;;14.80;99.80;;;;;;6120803;23;21027;-86
2021/07/30 02:16:32;;;;;;;5.97;5.37;;;14.80;99.80;;;;;;6120819;23;20427;-86
2021/07/30 02:19:00;;;;;;;5.17;4.67;;;14.80;99.80;;;;;;6121355;23;20404;-87
2021/07/30 02:21:28;;;;;;;8.80;5.60;;;14.70;99.80;;;;;;6120526;23;20419;-86
2021/07/30 02:23:56;;;;;;;7.40;4.70;;;14.70;99.80;;;;;;6120917;23;20449;-86
2021/07/30 02:26:24;;;;;;;6.53;4.93;;;14.70;99.80;;;;;;6120701;23;20432;-86
2021/07/30 02:28:52;;;;;;;11.33;6.03;;;14.70;99.80;;;;;;6121038;23;20403;-86
2021/07/30 02:31:20;;;;;;;6.93;5.07;;;14.70;99.80;;;;;;6120724;23;20408;-86
2021/07/30 02:33:49;;;;;;;6.70;4.97;;;14.70;99.80;;;;;;6121247;23;20740;-86
2021/07/30 02:36:18;;;;;;;8.57;5.27;;;14.70;99.80;;;;;;6070398;23;20959;-87
2021/07/30 02:38:46;;;;;;;6.20;4.67;;;14.70;99.80;;;;;;6082412;23;20428;-86
2021/07/30 02:41:16;;;;;;;7.20;5.20;;;14.70;99.80;;;;;;6075086;23;20999;-86
2021/07/30 02:43:44;;;;;;;5.90;4.87;;;14.60;99.80;;;;;;6086607;23;20827;-86
2021/07/30 02:46:16;;;;;;;5.30;4.73;;;14.60;99.80;;;;;;6097802;23;20439;-86
2021/07/30 02:48:44;;;;;;;6.40;5.43;;;14.60;99.80;;;;;;6096506;23;20439;-86
2021/07/30 02:51:14;;;;;;;5.20;4.70;;;14.50;99.80;;;;;;6114621;23;20444;-86
2021/07/30 02:53:43;;;;;;;7.03;5.40;;;14.50;99.80;;;;;;6112764;23;20939;-86
2021/07/30 02:56:11;;;;;;;8.10;5.20;;;14.50;99.80;;;;;;6089304;23;20449;-86
2021/07/30 02:58:39;;;;;;;6.83;6.13;;;14.40;99.80;;;;;;6107438;23;20446;-86
2021/07/30 03:01:07;;;;;;;7.13;5.30;;;14.40;99.80;;;;;;6069962;23;20438;-86
2021/07/30 03:03:36;;;;;;;7.90;5.60;;;14.40;99.80;;;;;;6106897;23;20446;-86
2021/07/30 03:06:04;;;;;;;8.30;5.90;;;14.40;99.80;;;;;;6104556;23;20431;-86
2021/07/30 03:08:33;;;;;;;7.50;5.57;;;14.40;99.80;;;;;;6103349;23;20439;-86
2021/07/30 03:11:01;;;;;;;5.40;4.90;;;14.30;99.80;;;;;;6102426;23;20439;-87
2021/07/30 03:13:29;;;;;;;7.63;5.20;;;14.30;99.80;;;;;;6109075;23;20443;-86
2021/07/30 03:15:57;;;;;;;6.57;5.40;;;14.30;99.80;;;;;;6097684;23;20439;-86
2021/07/30 03:18:27;;;;;;;7.07;5.83;;;14.30;99.80;;;;;;6111934;23;20447;-86
2021/07/30 03:20:55;;;;;;;7.90;6.17;;;14.30;99.80;;;;;;6116575;23;20439;-85
2021/07/30 03:23:23;;;;;;;6.20;5.60;;;14.20;99.80;;;;;;6113619;23;20439;-86
2021/07/30 03:25:52;;;;;;;6.33;5.00;;;14.20;99.80;;;;;;6110263;23;21110;-86
2021/07/30 03:28:22;;;;;;;8.90;6.07;;;14.20;99.80;;;;;;6110025;23;20505;-86
2021/07/30 03:30:50;;;;;;;10.37;5.30;;;14.20;99.80;;;;;;6107029;23;20441;-86
2021/07/30 03:33:18;;;;;;;5.77;4.87;;;14.20;99.80;;;;;;6108968;23;20446;-86
2021/07/30 03:35:47;;;;;;;6.40;5.67;;;14.20;99.80;;;;;;6109993;23;20443;-87
2021/07/30 03:38:15;;;;;;;7.20;5.10;;;14.20;99.80;;;;;;6109167;23;20434;-87
2021/07/30 03:40:43;;;;;;;5.80;4.93;;;14.20;99.80;;;;;;6102117;23;20439;-86
2021/07/30 03:43:13;;;;;;;6.67;5.80;;;14.20;99.80;;;;;;6100892;23;21142;-86
2021/07/30 03:45:41;;;;;;;6.80;5.53;;;14.10;99.80;;;;;;6106887;23;20457;-86
2021/07/30 03:48:09;;;;;;;7.77;5.30;;;14.10;99.80;;;;;;6113442;23;20441;-86
2021/07/30 03:50:37;;;;;;;6.07;5.10;;;14.10;99.80;;;;;;6113779;23;20442;-86
2021/07/30 03:53:05;;;;;;;12.63;5.57;;;14.10;99.80;;;;;;6116412;23;20434;-87
2021/07/30 03:55:33;;;;;;;6.23;5.40;;;14.10;99.80;;;;;;6114794;23;20447;-87
2021/07/30 03:58:01;;;;;;;5.97;4.60;;;14.10;99.80;;;;;;6103893;23;20657;-86
2021/07/30 04:00:30;;;;;;;6.13;5.53;;;14.20;99.80;;;;;;6086185;23;20450;-87
2021/07/30 04:02:59;;;;;;;6.40;5.60;;;14.20;99.80;;;;;;6121956;23;20530;-86
2021/07/30 04:05:27;;;;;;;12.33;6.00;;;14.20;99.80;;;;;;6113404;23;20476;-86
2021/07/30 04:07:55;;;;;;;5.90;5.30;;;14.20;99.80;;;;;;6110243;23;20481;-87
2021/07/30 04:10:23;;;;;;;5.93;4.93;;;14.20;99.80;;;;;;6103294;23;20443;-86
2021/07/30 04:12:51;;;;;;;6.30;5.70;;;14.20;99.80;;;;;;6109041;23;21212;-86
2021/07/30 04:15:21;;;;;;;6.07;4.90;;;14.20;99.80;;;;;;6107816;23;20451;-86
2021/07/30 04:17:53;;;;;;;5.93;5.10;;;14.20;99.80;;;;;;6101672;23;20447;-86
2021/07/30 04:20:23;;;;;;;6.13;5.30;;;14.20;99.80;;;;;;6100662;23;20441;-86
2021/07/30 04:22:51;;;;;;;7.57;6.17;;;14.20;99.80;;;;;;6106512;23;20446;-87
2021/07/30 04:25:20;;;;;;;7.13;6.17;;;14.20;99.80;;;;;;6101262;23;20485;-86
2021/07/30 04:27:47;;;;;;;6.80;5.50;;;14.20;99.80;;;;;;6108203;23;20439;-87
2021/07/30 04:30:16;;;;;;;6.10;5.07;;;14.20;99.80;;;;;;6111536;23;21214;-86
2021/07/30 04:32:44;;;;;;;7.57;5.97;;;14.30;99.80;;;;;;6113999;23;20437;-86
2021/07/30 04:35:13;;;;;;;7.23;6.07;;;14.30;99.80;;;;;;6115948;23;20963;-87
2021/07/30 04:37:41;;;;;;;7.87;5.60;;;14.30;99.80;;;;;;6114108;23;20547;-86
2021/07/30 04:40:10;;;;;;;9.23;5.73;;;14.30;99.80;;;;;;6104700;23;20446;-87
2021/07/30 04:42:38;;;;;;;7.30;6.13;;;14.40;99.80;;;;;;6099701;23;20721;-86
2021/07/30 04:45:07;;;;;;;10.13;5.27;;;14.50;99.80;;;;;;6103233;23;20448;-87
2021/07/30 04:47:35;;;;;;;7.63;5.47;;;14.50;99.80;;;;;;6111882;23;20446;-86
2021/07/30 04:50:03;;;;;;;7.07;6.27;;;14.60;99.80;;;;;;6107733;23;20426;-87
2021/07/30 04:52:32;;;;;;;7.03;6.10;;;14.60;99.80;;;;;;6105753;23;20439;-86
2021/07/30 04:55:01;;;;;;;7.93;7.13;;;14.70;99.80;;;;;;6106021;23;20812;-87
2021/07/30 04:57:29;;;;;;;6.50;5.87;;;14.70;99.80;;;;;;6096835;23;20438;-87
2021/07/30 04:59:57;;;;;;;5.93;5.17;;;14.70;99.80;;;;;;6080422;23;20442;-86
2021/07/30 05:02:25;;;;;;;6.87;5.87;;;14.70;99.80;;;;;;6109184;23;20431;-87
2021/07/30 05:04:55;;;;;;;10.30;6.30;;;14.70;99.80;;;;;;6116168;23;20494;-86
2021/07/30 05:07:23;;;;;;;11.63;5.83;;;14.70;99.80;;;;;;6116332;23;20431;-87
2021/07/30 05:09:53;;;;;;;6.83;5.93;;;14.70;99.80;;;;;;6113722;23;20439;-86
2021/07/30 05:12:21;;;;;;;11.27;6.87;;;14.70;99.80;;;;;;6096089;23;20435;-87
2021/07/30 05:14:49;;;;;;;7.43;5.97;;;14.70;99.80;;;;;;6104777;23;20740;-86
2021/07/30 05:17:17;;;;;;;7.87;6.00;;;14.70;99.80;;;;;;6104217;23;20530;-86
2021/07/30 05:19:45;;;;;;;8.40;6.07;;;14.70;99.80;;;;;;6111999;23;20952;-87
2021/07/30 05:22:12;;;;;;;9.50;6.67;;;14.70;99.80;;;;;;6100946;23;20436;-86
2021/07/30 05:24:40;;;;;;;7.23;6.53;;;14.80;99.80;;;;;;6097234;23;20948;-86
2021/07/30 05:27:10;;;;;;;11.80;7.13;;;14.90;99.80;;;;;;6098945;23;20449;-86
2021/07/30 05:29:39;;;;;;;9.33;6.63;;;15.00;99.80;;;;;;6107321;23;20439;-86
2021/07/30 05:32:08;;;;;;;9.93;7.07;;;15.00;99.80;;;;;;6109254;23;20443;-86
2021/07/30 05:34:36;;;;;;;8.40;6.90;;;15.00;99.80;;;;;;6113627;23;20451;-87
2021/07/30 05:37:05;;;;;;;7.77;6.80;;;15.10;99.80;;;;;;6114472;23;20450;-86
2021/07/30 05:39:33;;;;;;;8.30;6.33;;;15.20;99.80;;;;;;6112784;23;20447;-86
2021/07/30 05:42:02;;;;;;;9.33;7.23;;;15.30;99.80;;;;;;6107857;23;20447;-86
2021/07/30 05:44:31;;;;;;;8.30;6.30;;;15.30;99.80;;;;;;6104517;23;20441;-87
2021/07/30 05:47:01;;;;;;;8.60;5.97;;;15.40;99.80;;;;;;6092297;23;20933;-87
2021/07/30 05:49:30;;;;;;;8.40;7.10;;;15.50;99.80;;;;;;6112789;23;20438;-87
2021/07/30 05:51:58;;;;;;;8.23;6.73;;;15.60;99.80;;;;;;6115291;23;20439;-86
2021/07/30 05:54:26;;;;;;;6.57;5.97;;;15.70;99.80;;;;;;6107010;23;20436;-86
2021/07/30 05:56:57;;;;;;;8.47;6.33;;;15.70;99.80;;;;;;6102328;23;20447;-87
2021/07/30 05:59:26;;;;;;;10.43;6.10;;;15.80;99.80;;;;;;6096652;23;20436;-86
2021/07/30 06:01:55;;;;;;;7.83;6.93;;;15.90;99.80;;;;;;6077634;23;20444;-86
2021/07/30 06:04:24;;;;;;;8.80;6.50;;;16.00;99.80;;;;;;6107896;23;20440;-86
2021/07/30 06:06:52;;;;;;;7.70;6.40;;;16.10;99.80;;;;;;6108675;23;20447;-86
2021/07/30 06:09:20;;;;;;;6.90;5.93;;;16.30;99.80;;;;;;6111807;23;20451;-87
2021/07/30 06:11:48;;;;;;;8.37;6.00;;;16.30;99.80;;;;;;6111292;23;20444;-87
2021/07/30 06:14:16;;;;;;;7.53;6.17;;;16.40;99.80;;;;;;6110348;23;20440;-87
2021/07/30 06:16:44;;;;;;;7.53;5.97;;;16.40;99.80;;;;;;6110863;23;20473;-87
2021/07/30 06:19:13;;;;;;;7.33;5.40;;;16.50;99.80;;;;;;6113865;23;21027;-85
2021/07/30 06:21:41;;;;;;;10.63;6.30;;;16.60;99.80;;;;;;6111492;23;20457;-85
2021/07/30 06:24:09;;;;;;;11.90;6.10;;;16.70;99.80;;;;;;6109928;23;20440;-85
2021/07/30 06:26:37;;;;;;;7.03;5.97;;;16.80;99.80;;;;;;6102240;23;20944;-87
2021/07/30 06:29:05;;;;;;;9.20;6.63;;;17.00;99.80;;;;;;6100568;23;20504;-87
2021/07/30 06:31:33;;;;;;;6.73;5.77;;;17.00;99.80;;;;;;6105942;23;20436;-87
2021/07/30 06:34:01;;;;;;;5.63;4.93;;;17.20;99.80;;;;;;6099907;23;20461;-87
2021/07/30 06:36:31;;;;;;;5.93;5.40;;;17.40;99.80;;;;;;6102622;23;20453;-87
2021/07/30 06:39:00;;;;;;;7.77;6.03;;;17.40;99.80;;;;;;6103395;23;21059;-84
2021/07/30 06:41:28;;;;;;;7.07;5.07;;;17.50;99.80;;;;;;6103001;23;20528;-85
2021/07/30 06:43:56;;;;;;;8.90;5.70;;;17.60;99.80;;;;;;6094013;23;20438;-84
2021/07/30 06:46:24;;;;;;;5.73;5.20;;;17.70;99.80;;;;;;6087736;23;20449;-84
2021/07/30 06:48:52;;;;;;;5.10;4.60;;;17.80;99.80;;;;;;6108834;23;20446;-84
2021/07/30 06:51:20;;;;;;;6.37;4.90;;;17.90;99.80;;;;;;6113519;23;20484;-84
2021/07/30 06:53:49;;;;;;;6.97;4.87;;;18.00;99.80;;;;;;6113901;23;20439;-85
2021/07/30 06:56:18;;;;;;;9.40;5.80;;;18.10;99.80;;;;;;6098844;23;20469;-84
2021/07/30 06:58:46;;;;;;;9.73;5.20;;;18.20;99.80;;;;;;6097169;23;20435;-85
2021/07/30 07:01:14;;;;;;;7.60;5.17;;;18.30;99.80;;;;;;6084519;23;20493;-85
2021/07/30 07:03:42;;;;;;;7.40;5.27;;;18.30;99.80;;;;;;6108678;23;20449;-84
2021/07/30 07:06:15;;;;;;;7.10;5.77;;;18.30;99.80;;;;;;6095012;23;20438;-85
2021/07/30 07:08:43;;;;;;;6.50;5.90;;;18.40;99.80;;;;;;6096698;23;20526;-85
2021/07/30 07:11:12;;;;;;;10.07;6.60;;;18.50;99.80;;;;;;6072006;23;21009;-86
2021/07/30 07:13:41;;;;;;;9.27;5.30;;;18.60;99.80;;;;;;6114574;23;20445;-86
2021/07/30 07:16:09;;;;;;;6.03;5.00;;;18.60;99.80;;;;;;6096831;23;21124;-85
2021/07/30 07:18:37;;;;;;;6.43;5.00;;;18.90;99.80;;;;;;6109797;23;20529;-85
2021/07/30 07:21:06;;;;;;;5.07;4.37;;;19.00;99.80;;;;;;6113372;23;20446;-84
2021/07/30 07:23:33;;;;;;;11.80;5.63;;;19.00;99.80;;;;;;6113152;23;20445;-85
2021/07/30 07:26:02;;;;;;;5.60;4.40;;;19.10;99.80;;;;;;6114389;23;20460;-84
2021/07/30 07:28:31;;;;;;;8.43;4.70;;;19.20;99.80;;;;;;6093772;23;20445;-84
2021/07/30 07:30:59;;;;;;;7.03;4.70;;;19.20;99.80;;;;;;6084958;23;20448;-86
2021/07/30 07:33:27;;;;;;;4.63;4.20;;;19.40;99.80;;;;;;6108785;23;21226;-86
2021/07/30 07:35:55;;;;;;;6.67;4.67;;;19.40;99.80;;;;;;6112471;23;20438;-86
2021/07/30 07:38:23;;;;;;;7.20;4.30;;;19.50;99.80;;;;;;6083279;23;20439;-86
2021/07/30 07:40:51;;;;;;;5.77;4.13;;;19.60;99.80;;;;;;6087048;23;20513;-86
2021/07/30 07:43:19;;;;;;;5.47;4.97;;;19.80;99.80;;;;;;6043500;23;20501;-85
2021/07/30 07:45:49;;;;;;;4.17;3.67;;;19.90;99.80;;;;;;6086700;23;20518;-85
2021/07/30 07:48:17;;;;;;;8.13;4.60;;;20.00;99.80;;;;;;6109548;23;20434;-85
2021/07/30 07:50:45;;;;;;;6.17;4.33;;;20.10;99.80;;;;;;6112202;23;20459;-85
2021/07/30 07:53:14;;;;;;;4.40;3.80;;;20.20;99.80;;;;;;6113414;23;20900;-86
2021/07/30 07:55:43;;;;;;;5.23;3.97;;;20.30;99.80;;;;;;6112298;23;20802;-86
2021/07/30 07:58:11;;;;;;;6.83;4.93;;;20.40;99.80;;;;;;6113985;23;20524;-86
2021/07/30 08:00:40;;;;;;;5.03;3.60;;;20.60;99.80;;;;;;6075286;23;20993;-86
2021/07/30 08:03:10;;;;;;;6.00;4.13;;;20.70;99.80;;;;;;6118412;23;20445;-85
2021/07/30 08:05:38;;;;;;;4.63;4.20;;;20.70;99.80;;;;;;6111824;23;20814;-86
2021/07/30 08:08:07;;;;;;;4.53;4.13;;;20.80;99.80;;;;;;6117539;23;20959;-86
2021/07/30 08:10:35;;;;;;;5.10;3.20;;;20.90;99.80;;;;;;6085821;23;20983;-85
2021/07/30 08:13:03;;;;;;;4.27;3.20;;;21.00;96.80;;;;;;6077689;23;20439;-86
2021/07/30 08:15:31;;;;;;;3.67;3.30;;;21.10;97.50;;;;;;6102135;23;20785;-85
2021/07/30 08:17:59;;;;;;;5.03;2.87;;;21.20;97.60;;;;;;6081523;23;20434;-86
2021/07/30 08:20:29;;;;;;;4.27;3.50;;;21.30;97.20;;;;;;6071262;23;20443;-86
2021/07/30 08:22:57;;;;;;;3.40;3.00;;;21.40;98.00;;;;;;6099746;23;20440;-85
2021/07/30 08:25:25;;;;;;;7.60;2.97;;;21.50;95.90;;;;;;6087253;23;20451;-85
2021/07/30 08:27:53;;;;;;;4.30;3.20;;;21.50;95.90;;;;;;6088026;23;20474;-86
2021/07/30 08:30:21;;;;;;;4.10;2.87;;;21.60;94.20;;;;;;6087863;23;20843;-86
2021/07/30 08:32:48;;;;;;;3.10;2.80;;;21.70;94.10;;;;;;6101375;23;21159;-84
2021/07/30 08:35:16;;;;;;;3.03;2.83;;;21.80;96.10;;;;;;6110835;23;20450;-85
2021/07/30 08:37:46;;;;;;;7.00;2.60;;;21.90;94.80;;;;;;6111067;23;20454;-85
2021/07/30 08:40:15;;;;;;;4.77;3.30;;;22.10;94.10;;;;;;6114483;23;20514;-86
2021/07/30 08:42:43;;;;;;;7.70;3.10;;;22.20;94.20;;;;;;6095211;23;20443;-85
2021/07/30 08:45:11;;;;;;;3.07;2.77;;;22.30;93.50;;;;;;6087040;23;20518;-86
2021/07/30 08:47:39;;;;;;;3.20;2.80;;;22.40;93.90;;;;;;6083393;23;20520;-86
2021/07/30 08:50:07;;;;;;;6.30;3.90;;;22.50;92.80;;;;;;6101518;23;20438;-86
2021/07/30 08:52:37;;;;;;;3.83;2.30;;;22.60;92.10;;;;;;6088375;23;21023;-88
2021/07/30 08:55:08;;;;;;;3.67;2.87;;;22.60;92.10;;;;;;6076719;23;20842;-89
2021/07/30 08:57:42;;;;;;;5.53;2.50;;;22.70;88.30;;;;;;6088071;23;20473;-88
2021/07/30 09:00:12;;;;;;;4.30;2.83;;;22.70;90.30;;;;;;6087036;23;20509;-88
2021/07/30 09:02:41;;;;;;;2.60;2.40;;;22.70;89.90;;;;;;6098348;23;20431;-88
2021/07/30 09:05:26;;;;;;;6.63;2.73;;;22.80;89.80;;;;;;6113963;23;20439;-87
2021/07/30 09:07:55;;;;;;;4.70;2.60;;;22.70;88.90;;;;;;6113882;23;20509;-88
2021/07/30 09:10:33;;;;;;;3.80;2.87;;;22.80;88.80;;;;;;6113744;23;20435;-88
2021/07/30 09:13:15;;;;;;;4.20;3.20;;;22.90;89.90;;;;;;6086542;23;20445;-88
2021/07/30 09:15:43;;;;;;;6.70;3.10;;;23.30;88.10;;;;;;6072260;23;20583;-88
2021/07/30 09:18:28;;;;;;;4.50;2.97;;;23.30;88.60;;;;;;6101367;23;20481;-88
2021/07/30 09:21:14;;;;;;;3.60;2.80;;;23.40;86.90;;;;;;6113315;23;20439;-88
2021/07/30 09:23:47;;;;;;;5.50;2.73;;;23.40;86.90;;;;;;6087512;23;20442;-89
2021/07/30 09:26:39;;;;;;;3.07;2.80;;;23.50;86.20;;;;;;6074340;23;20439;-88
2021/07/30 09:29:10;;;;;;;5.20;2.90;;;23.60;89.00;;;;;;6091858;23;20992;-89
2021/07/30 09:31:44;;;;;;;2.60;2.40;;;23.80;87.50;;;;;;6100137;23;21049;-88
2021/07/30 09:34:20;;;;;;;2.70;2.50;;;23.90;88.00;;;;;;6112745;23;20437;-88
2021/07/30 09:36:52;;;;;;;3.73;2.70;;;23.90;88.00;;;;;;6109503;23;20912;-88
2021/07/30 09:39:22;;;;;;;3.20;2.90;;;24.00;85.00;;;;;;6110842;23;20441;-88
2021/07/30 09:41:54;;;;;;;3.97;2.57;;;24.00;85.30;;;;;;6113783;23;20438;-88
2021/07/30 09:44:22;;;;;;;2.97;2.60;;;24.00;85.30;;;;;;6085346;23;20529;-89
2021/07/30 09:47:13;;;;;;;3.60;2.73;;;24.00;85.10;;;;;;6086985;23;20442;-89
2021/07/30 09:49:47;;;;;;;3.27;2.97;;;24.40;85.80;;;;;;6123853;23;20519;-89
2021/07/30 09:52:17;;;;;;;3.20;2.87;;;24.70;85.90;;;;;;6114360;23;20538;-88
2021/07/30 09:54:49;;;;;;;3.23;2.60;;;24.80;86.30;;;;;;6087169;23;20445;-88
2021/07/30 09:57:21;;;;;;;3.13;2.83;;;25.00;86.00;;;;;;6098973;23;20437;-89
2021/07/30 09:59:50;;;;;;;3.93;3.10;;;25.00;84.10;;;;;;6052413;23;20448;-88
2021/07/30 10:02:20;;;;;;;4.77;3.00;;;25.10;84.10;;;;;;6070855;23;20501;-89
2021/07/30 10:04:50;;;;;;;3.97;3.30;;;24.70;83.90;;;;;;6086368;23;20445;-89
2021/07/30 10:07:20;;;;;;;5.17;3.03;;;24.70;84.00;;;;;;6086578;23;20433;-89
2021/07/30 10:09:54;;;;;;;3.40;2.70;;;24.40;83.20;;;;;;6057860;23;20527;-89
2021/07/30 10:12:24;;;;;;;5.50;2.70;;;24.00;83.60;;;;;;6085378;23;20498;-89
2021/07/30 10:14:53;;;;;;;3.27;3.07;;;23.70;85.90;;;;;;6084074;23;20434;-90
2021/07/30 10:17:28;;;;;;;2.30;2.20;;;24.20;86.00;;;;;;6085803;23;20497;-89
2021/07/30 10:19:57;;;;;;;3.13;2.60;;;24.20;85.80;;;;;;6125132;23;20435;-88
2021/07/30 10:22:30;;;;;;;7.47;2.87;;;24.70;83.40;;;;;;6110066;23;20438;-88
2021/07/30 10:25:00;;;;;;;3.73;3.13;;;24.90;82.90;;;;;;6102599;23;20460;-89
2021/07/30 10:27:31;;;;;;;2.63;2.43;;;25.10;80.90;;;;;;6071792;23;20439;-89
2021/07/30 10:30:04;;;;;;;2.70;2.50;;;25.20;82.30;;;;;;6085688;23;20548;-89
2021/07/30 10:32:52;;;;;;;3.47;2.80;;;25.40;84.00;;;;;;6089807;23;20937;-89
2021/07/30 10:35:41;;;;;;;3.73;2.83;;;25.70;82.10;;;;;;6098544;23;20453;-89
2021/07/30 10:38:12;;;;;;;6.30;3.20;;;25.70;81.50;;;;;;6074159;23;20796;-88
2021/07/30 10:40:40;;;;;;;4.03;2.90;;;25.70;79.80;;;;;;6090085;23;20440;-89
2021/07/30 10:43:11;;;;;;;4.80;2.70;;;25.80;84.60;;;;;;6073258;23;20435;-89
2021/07/30 10:45:40;;;;;;;5.60;3.37;;;26.00;79.80;;;;;;6085853;23;20448;-88
2021/07/30 10:48:29;;;;;;;4.93;2.40;;;26.00;81.10;;;;;;6055155;23;20432;-88
2021/07/30 10:50:59;;;;;;;4.60;3.47;;;26.10;82.60;;;;;;6102861;23;20964;-88
2021/07/30 10:53:55;;;;;;;2.97;2.77;;;26.30;80.00;;;;;;6115057;23;20429;-88
2021/07/30 10:56:40;;;;;;;3.83;2.67;;;26.40;81.30;;;;;;6064684;23;20695;-87
2021/07/30 10:59:09;;;;;;;3.40;2.97;;;26.40;81.70;;;;;;6067128;23;20440;-86
2021/07/30 11:01:59;;;;;;;4.63;3.73;;;26.70;82.20;;;;;;6086191;23;20437;-88
2021/07/30 11:04:28;;;;;;;6.80;3.50;;;27.00;81.30;;;;;;6096131;23;20437;-88
2021/07/30 11:06:58;;;;;;;4.23;3.77;;;27.10;78.40;;;;;;6099748;23;21018;-87
2021/07/30 11:09:28;;;;;;;4.00;3.20;;;27.10;80.40;;;;;;6069530;23;20452;-87
2021/07/30 11:11:57;;;;;;;3.13;2.83;;;27.30;79.50;;;;;;6086419;23;20438;-87
2021/07/30 11:14:27;;;;;;;3.30;2.93;;;27.60;77.50;;;;;;6086740;23;20452;-87
2021/07/30 11:16:57;;;;;;;4.83;3.40;;;28.00;77.40;;;;;;6069873;23;20441;-87
2021/07/30 11:19:28;;;;;;;3.60;3.20;;;27.90;76.70;;;;;;6110294;23;20443;-87
2021/07/30 11:21:58;;;;;;;3.53;3.30;;;27.60;78.10;;;;;;6109682;23;20512;-87
2021/07/30 11:24:29;;;;;;;3.80;3.23;;;27.10;78.00;;;;;;6112633;23;20438;-87
2021/07/30 11:26:57;;;;;;;4.43;3.53;;;26.90;77.50;;;;;;6112954;23;21002;-87
2021/07/30 11:29:30;;;;;;;3.87;3.57;;;26.90;80.80;;;;;;6074298;23;21288;-87
2021/07/30 11:31:59;;;;;;;3.87;3.53;;;27.10;79.40;;;;;;6084729;23;20997;-87
2021/07/30 11:34:30;;;;;;;3.43;3.13;;;26.90;77.10;;;;;;6116341;23;20480;-87
2021/07/30 11:36:58;;;;;;;3.60;3.20;;;26.60;80.00;;;;;;6114399;23;20449;-86
2021/07/30 11:39:38;;;;;;;5.27;3.57;;;26.60;81.50;;;;;;6087508;23;20500;-89
2021/07/30 11:42:07;;;;;;;3.83;3.30;;;26.60;81.70;;;;;;6075536;23;20604;-87
2021/07/30 11:44:49;;;;;;;3.97;3.47;;;27.40;79.20;;;;;;6100058;23;20438;-88
2021/07/30 11:47:19;;;;;;;3.33;3.03;;;27.80;79.20;;;;;;6070537;23;20529;-88
2021/07/30 11:49:49;;;;;;;3.60;3.30;;;28.10;76.80;;;;;;6085387;23;20439;-87
2021/07/30 11:52:22;;;;;;;4.27;3.57;;;28.10;76.80;;;;;;6087383;23;20441;-87
2021/07/30 11:54:50;;;;;;;3.50;3.20;;;28.70;73.10;;;;;;6073707;23;20443;-86
2021/07/30 11:57:28;;;;;;;4.50;3.60;;;28.80;73.50;;;;;;6087093;23;20525;-88
2021/07/30 11:59:58;;;;;;;4.30;3.90;;;28.80;73.00;;;;;;6082324;23;20522;-87
2021/07/30 12:02:27;;;;;;;4.03;3.63;;;28.80;72.60;;;;;;6086817;23;20439;-87
2021/07/30 12:04:58;;;;;;;3.50;3.20;;;28.70;73.60;;;;;;6113386;23;20536;-87
2021/07/30 12:07:28;;;;;;;3.90;3.53;;;28.90;76.40;;;;;;6111436;23;20533;-88
2021/07/30 12:09:58;;;;;;;4.63;3.20;;;29.80;74.70;;;;;;6100595;23;20446;-87
2021/07/30 12:12:29;;;;;;;3.87;3.17;;;29.80;74.60;;;;;;6083264;23;20515;-87
2021/07/30 12:15:00;;;;;;;4.23;3.70;;;33.20;65.00;;;;;;6087774;23;20947;-87
2021/07/30 12:17:30;;;;;;;8.13;3.50;;;33.90;64.10;;;;;;6099261;23;20434;-88
2021/07/30 12:20:01;;;;;;;6.27;3.40;;;34.70;62.60;;;;;;6086715;23;20514;-87
2021/07/30 12:22:37;;;;;;;5.40;3.10;;;33.60;63.80;;;;;;6089681;23;20533;-88
2021/07/30 12:25:08;;;;;;;3.40;3.00;;;34.40;63.60;;;;;;6073326;23;20434;-88
2021/07/30 12:27:36;;;;;;;2.90;2.70;;;36.00;60.90;;;;;;6087138;23;20445;-88
2021/07/30 12:30:07;;;;;;;3.23;2.93;;;36.90;57.60;;;;;;6087127;23;20441;-87
2021/07/30 12:32:40;;;;;;;3.97;2.90;;;37.60;55.50;;;;;;6085021;23;21160;-88
2021/07/30 12:35:11;;;;;;;2.63;2.43;;;38.00;54.20;;;;;;6113974;23;20434;-87
2021/07/30 12:38:02;;;;;;;3.70;2.87;;;36.90;55.30;;;;;;6111238;23;20489;-87
2021/07/30 12:40:30;;;;;;;2.90;2.67;;;34.90;59.20;;;;;;6113407;23;20502;-86
2021/07/30 12:43:13;;;;;;;3.47;3.17;;;34.20;60.50;;;;;;6074674;23;20439;-88
2021/07/30 12:45:44;;;;;;;3.03;2.70;;;33.40;62.50;;;;;;6092292;23;21034;-87
2021/07/30 12:48:18;;;;;;;2.93;2.70;;;33.00;64.20;;;;;;6083106;23;20503;-88
2021/07/30 12:50:46;;;;;;;3.07;2.80;;;32.70;62.30;;;;;;6112204;23;20449;-87
2021/07/30 12:53:16;;;;;;;4.73;2.63;;;32.10;65.20;;;;;;6094080;23;20446;-86
2021/07/30 12:56:04;;;;;;;4.10;3.00;;;31.90;66.00;;;;;;6063596;23;20451;-84
2021/07/30 12:58:34;;;;;;;3.70;3.33;;;31.80;67.90;;;;;;6081253;23;20838;-85
2021/07/30 13:01:10;;;;;;;3.83;3.40;;;32.20;63.70;;;;;;6058299;23;20446;-84